Time;durP1;ratioP1;P1;durP2;ratioP2;P2;SDS_P1;SDS_P2;PMS_P1;PMS_P2;Temp;Humidity;BMP_temperature;BMP_pressure;BME280_temperature;BME280_humidity;BME280_pressure;Samples;Min_cycle;Max_cycle;Signal;HPM_P1;HPM_P2
2023/01/03 00:08:28;;;;;;;1999.90;999.90;;;8.00;99.90;;;;;;6703161;88;20274;-76
2023/01/03 00:18:28;;;;;;;1999.90;999.90;;;8.10;99.90;;;;;;6700426;88;20202;-76
2023/01/03 00:28:29;;;;;;;1999.90;999.90;;;8.10;99.90;;;;;;6701147;88;20212;-76
2023/01/03 00:38:29;;;;;;;1999.90;999.90;;;8.10;99.90;;;;;;6700062;88;20248;-77
2023/01/03 00:48:31;;;;;;;1999.90;999.90;;;8.20;99.90;;;;;;6700417;88;20256;-76
2023/01/03 00:58:32;;;;;;;1999.90;999.90;;;8.20;99.90;;;;;;6701987;88;20194;-77
2023/01/03 01:08:32;;;;;;;1999.90;999.90;;;8.30;99.90;;;;;;6701168;88;20928;-76
2023/01/03 01:18:34;;;;;;;1999.90;999.90;;;7.80;99.90;;;;;;6696256;88;20215;-76
2023/01/03 01:28:35;;;;;;;1999.90;999.90;;;7.80;99.90;;;;;;6699540;88;20657;-76
2023/01/03 01:38:36;;;;;;;1999.90;999.90;;;8.10;99.90;;;;;;6701936;88;20256;-76
2023/01/03 01:48:37;;;;;;;1999.90;999.90;;;8.40;99.90;;;;;;6698189;88;20214;-77
2023/01/03 01:58:41;;;;;;;1999.90;999.90;;;8.50;99.90;;;;;;6701921;88;20236;-77
2023/01/03 02:08:41;;;;;;;1999.90;999.90;;;8.50;99.90;;;;;;6696855;88;20208;-77
2023/01/03 02:18:58;;;;;;;1999.90;999.90;;;8.60;99.90;;;;;;6700406;88;20224;-77
2023/01/03 02:29:34;;;;;;;1999.90;999.90;;;8.70;99.90;;;;;;6694013;88;22721;-77
2023/01/03 02:39:50;;;;;;;1999.90;999.90;;;8.70;99.90;;;;;;6697882;88;20206;-77
2023/01/03 02:49:51;;;;;;;1999.90;999.90;;;8.70;99.90;;;;;;6697055;88;20203;-77
2023/01/03 03:00:01;;;;;;;1999.90;999.90;;;8.70;99.90;;;;;;6697420;88;20178;-77
2023/01/03 03:30:46;;;;;;;1999.90;999.90;;;8.60;99.90;;;;;;6697774;88;20234;-77
2023/01/03 03:51:18;;;;;;;1999.90;999.90;;;8.40;99.90;;;;;;6701711;88;20216;-77
2023/01/03 04:01:21;;;;;;;1999.90;999.90;;;8.50;99.90;;;;;;6703460;88;20182;-77
2023/01/03 04:11:22;;;;;;;1999.90;999.90;;;8.40;99.90;;;;;;6704088;88;20219;-77
2023/01/03 04:21:22;;;;;;;1999.90;999.90;;;8.40;99.90;;;;;;6703743;88;20629;-78
2023/01/03 04:31:23;;;;;;;1999.90;999.90;;;8.40;99.90;;;;;;6701030;88;20784;-77
2023/01/03 04:41:23;;;;;;;1999.90;999.90;;;8.40;99.90;;;;;;6697088;88;20226;-76
2023/01/03 04:51:24;;;;;;;1999.90;999.90;;;8.50;99.90;;;;;;6695678;88;20212;-76
2023/01/03 05:01:25;;;;;;;1999.90;999.90;;;8.50;99.90;;;;;;6700175;88;20714;-76
2023/01/03 05:11:25;;;;;;;1999.90;999.90;;;8.30;99.90;;;;;;6702135;88;20190;-76
2023/01/03 05:31:45;;;;;;;1999.90;999.90;;;8.40;99.90;;;;;;6708198;88;20175;-77
2023/01/03 05:41:58;;;;;;;1999.90;999.90;;;8.40;99.90;;;;;;6708731;88;20265;-76
2023/01/03 05:51:58;;;;;;;1999.90;999.90;;;8.30;99.90;;;;;;6704048;88;20992;-76
2023/01/03 06:01:59;;;;;;;1999.90;999.90;;;8.00;99.90;;;;;;6705533;88;20269;-75
2023/01/03 06:11:59;;;;;;;1999.90;999.90;;;7.70;99.90;;;;;;6701344;88;20194;-75
2023/01/03 06:22:00;;;;;;;1999.90;999.90;;;7.70;99.90;;;;;;6701406;88;20216;-76
2023/01/03 06:32:00;;;;;;;1999.90;999.90;;;7.60;99.90;;;;;;6701842;88;20238;-76
2023/01/03 06:42:38;;;;;;;1999.90;999.90;;;7.50;99.90;;;;;;6697726;88;20687;-76
2023/01/03 07:02:41;;;;;;;1999.90;999.90;;;7.30;99.90;;;;;;6699450;88;20217;-76
2023/01/03 07:23:00;;;;;;;1999.90;999.90;;;7.10;99.90;;;;;;6704439;88;20710;-78
2023/01/03 07:33:01;;;;;;;1999.90;999.90;;;7.10;99.90;;;;;;6699492;88;20321;-77
2023/01/03 07:53:20;;;;;;;1999.90;999.90;;;7.10;99.90;;;;;;6701490;88;20233;-78
2023/01/03 08:03:21;;;;;;;1999.90;999.90;;;7.10;99.90;;;;;;6703380;88;20763;-77
2023/01/03 08:13:23;;;;;;;1999.90;999.90;;;7.00;99.90;;;;;;6704447;88;20816;-77
2023/01/03 08:23:25;;;;;;;1999.90;999.90;;;7.10;99.90;;;;;;6702778;88;20219;-77
2023/01/03 08:33:28;;;;;;;1999.90;999.90;;;7.20;99.90;;;;;;6701669;88;20178;-77
2023/01/03 08:43:34;;;;;;;1999.90;999.90;;;7.30;99.90;;;;;;6704220;88;20183;-77
2023/01/03 08:53:34;;;;;;;1999.90;999.90;;;7.70;99.90;;;;;;6702771;88;20227;-77
2023/01/03 09:03:35;;;;;;;1999.90;999.90;;;8.20;99.90;;;;;;6704178;88;20784;-78
2023/01/03 09:13:36;;;;;;;1999.90;999.90;;;8.70;99.90;;;;;;6697760;88;20207;-77
2023/01/03 09:23:37;;;;;;;1999.90;999.90;;;9.20;99.90;;;;;;6701880;88;20402;-77
2023/01/03 09:33:37;;;;;;;1999.90;999.90;;;9.60;99.90;;;;;;6705680;88;20244;-77
2023/01/03 09:43:40;;;;;;;1999.90;999.90;;;10.10;99.90;;;;;;6701395;88;20249;-77
2023/01/03 10:04:19;;;;;;;1999.90;999.90;;;10.60;99.90;;;;;;6699584;88;20190;-78
2023/01/03 10:14:34;;;;;;;1999.90;999.90;;;11.00;99.90;;;;;;6701020;88;20272;-77
2023/01/03 10:24:46;;;;;;;1999.90;999.90;;;11.20;99.90;;;;;;6692841;88;20186;-77
2023/01/03 10:35:12;;;;;;;1999.90;999.90;;;11.80;99.90;;;;;;6696753;88;20206;-76
2023/01/03 10:45:20;;;;;;;1999.90;999.90;;;12.00;99.90;;;;;;6697676;88;20191;-77
2023/01/03 10:55:22;;;;;;;1999.90;999.90;;;12.00;99.90;;;;;;6700638;88;20227;-77
2023/01/03 11:05:25;;;;;;;1999.90;999.90;;;12.50;99.90;;;;;;6700786;88;20237;-76
2023/01/03 11:15:35;;;;;;;1999.90;999.90;;;13.00;99.90;;;;;;6700748;88;20215;-76
2023/01/03 11:26:12;;;;;;;1999.90;999.90;;;12.70;99.90;;;;;;6701943;88;20689;-76
2023/01/03 11:36:29;;;;;;;1999.90;999.90;;;11.70;99.90;;;;;;6699153;88;20203;-77
2023/01/03 11:46:36;;;;;;;1999.90;999.90;;;11.40;99.90;;;;;;6698190;88;20183;-77
2023/01/03 11:57:01;;;;;;;1999.90;999.90;;;11.30;99.90;;;;;;6699734;88;20304;-77
2023/01/03 12:07:08;;;;;;;1999.90;999.90;;;11.40;99.90;;;;;;6711174;88;20218;-79
2023/01/03 12:17:16;;;;;;;1999.90;999.90;;;12.10;99.90;;;;;;6673588;89;20367;-78
2023/01/03 12:27:29;;;;;;;1999.90;999.90;;;12.40;99.90;;;;;;6677134;89;20184;-78
2023/01/03 12:37:35;;;;;;;1999.90;999.90;;;12.40;99.90;;;;;;6677838;89;20257;-80
2023/01/03 12:47:49;;;;;;;1999.90;999.90;;;12.70;99.90;;;;;;6677453;89;20220;-79
2023/01/03 12:58:15;;;;;;;1999.90;999.90;;;13.30;99.90;;;;;;6678001;88;20344;-79
2023/01/03 13:08:29;;;;;;;1999.90;999.90;;;14.10;99.90;;;;;;6678990;89;20187;-80
2023/01/03 13:18:33;;;;;;;1999.90;999.90;;;14.60;99.90;;;;;;6678720;89;20191;-80
2023/01/03 13:28:35;;;;;;;1999.90;999.90;;;15.70;99.90;;;;;;6677279;89;20195;-80
2023/01/03 13:38:36;;;;;;;1999.90;999.90;;;14.70;99.90;;;;;;6676935;89;20297;-80
2023/01/03 13:48:39;;;;;;;1999.90;999.90;;;13.30;99.90;;;;;;6679026;89;20195;-79
2023/01/03 13:58:43;;;;;;;1999.90;999.90;;;12.60;99.90;;;;;;6678973;88;20983;-80
2023/01/03 14:09:23;;;;;;;1999.90;999.90;;;12.40;99.90;;;;;;6687495;88;20217;-80
2023/01/03 14:19:31;;;;;;;1999.90;999.90;;;13.40;99.90;;;;;;6675933;89;20207;-79
2023/01/03 14:29:35;;;;;;;1999.90;999.90;;;12.80;99.90;;;;;;6676517;89;20783;-78
2023/01/03 14:39:36;;;;;;;1999.90;999.90;;;13.10;99.90;;;;;;6676201;89;20194;-78
2023/01/03 14:49:40;;;;;;;1999.90;999.90;;;12.50;99.90;;;;;;6675569;89;20254;-78
2023/01/03 14:59:41;;;;;;;1999.90;999.90;;;12.00;99.90;;;;;;6675398;89;20330;-78
2023/01/03 15:09:42;;;;;;;1999.90;999.90;;;11.50;99.90;;;;;;6675493;89;20691;-80
2023/01/03 15:19:51;;;;;;;1999.90;999.90;;;11.20;99.90;;;;;;6674545;89;20503;-79
2023/01/03 15:29:52;;;;;;;1999.90;999.90;;;10.90;99.90;;;;;;6675460;89;20642;-79
2023/01/03 15:39:55;;;;;;;1999.90;999.90;;;10.50;99.90;;;;;;6678181;89;20252;-79
2023/01/03 15:49:59;;;;;;;1999.90;999.90;;;10.10;99.90;;;;;;6678146;89;20656;-78
2023/01/03 16:00:03;;;;;;;1999.90;999.90;;;9.90;99.90;;;;;;6676952;89;20191;-79
2023/01/03 16:10:04;;;;;;;1999.90;999.90;;;9.70;99.90;;;;;;6674117;89;20213;-78
2023/01/03 16:20:04;;;;;;;1999.90;999.90;;;9.60;99.90;;;;;;6676270;89;20183;-79
2023/01/03 16:30:06;;;;;;;1999.90;999.90;;;9.50;99.90;;;;;;6676151;89;20651;-80
2023/01/03 16:40:18;;;;;;;1999.90;999.90;;;9.30;99.90;;;;;;6675563;89;20277;-79
2023/01/03 16:50:19;;;;;;;1999.90;999.90;;;9.00;99.90;;;;;;6676699;89;20269;-78
2023/01/03 17:00:31;;;;;;;1999.90;999.90;;;8.80;99.90;;;;;;6678547;89;20202;-79
2023/01/03 17:10:37;;;;;;;1999.90;999.90;;;8.70;99.90;;;;;;6676278;89;20218;-79
2023/01/03 17:20:38;;;;;;;1999.90;999.90;;;8.50;99.90;;;;;;6675387;89;20213;-78
2023/01/03 17:30:38;;;;;;;1999.90;999.90;;;8.50;99.90;;;;;;6678523;88;20207;-80
2023/01/03 17:40:45;;;;;;;1999.90;999.90;;;8.40;99.90;;;;;;6675208;89;20759;-79
2023/01/03 17:50:45;;;;;;;1999.90;999.90;;;8.50;99.90;;;;;;6674876;89;20617;-79
2023/01/03 18:00:46;;;;;;;1999.90;999.90;;;8.50;99.90;;;;;;6670795;77;20237;-76
2023/01/03 18:10:48;;;;;;;1999.90;999.90;;;8.40;99.90;;;;;;6647470;89;20184;-77
2023/01/03 18:20:49;;;;;;;1999.90;999.90;;;8.30;99.90;;;;;;6648054;89;20205;-76
2023/01/03 18:30:49;;;;;;;1999.90;999.90;;;8.30;99.90;;;;;;6649712;88;20364;-77
2023/01/03 18:40:51;;;;;;;1999.90;999.90;;;8.30;99.90;;;;;;6647469;89;20567;-76
2023/01/03 18:50:52;;;;;;;1999.90;999.90;;;8.30;99.90;;;;;;6650879;88;20189;-77
2023/01/03 19:00:53;;;;;;;1999.90;999.90;;;8.50;99.90;;;;;;6652689;88;20224;-78
2023/01/03 19:10:55;;;;;;;1999.90;999.90;;;8.50;99.90;;;;;;6652169;89;20636;-77
2023/01/03 19:20:55;;;;;;;1999.90;999.90;;;8.50;99.90;;;;;;6651147;88;20242;-77
2023/01/03 19:30:56;;;;;;;1999.90;999.90;;;8.40;99.90;;;;;;6644625;89;20189;-77
2023/01/03 19:40:57;;;;;;;1999.90;999.90;;;8.40;99.90;;;;;;6647525;88;20380;-76
2023/01/03 19:50:57;;;;;;;1999.90;999.90;;;8.40;99.90;;;;;;6648874;88;20206;-76
2023/01/03 20:00:58;;;;;;;1999.90;999.90;;;8.40;99.90;;;;;;6649323;88;20505;-76
2023/01/03 20:11:00;;;;;;;1999.90;999.90;;;8.20;99.90;;;;;;6650717;88;20511;-77
2023/01/03 20:21:19;;;;;;;1999.90;999.90;;;8.00;99.90;;;;;;6648710;88;20614;-77
2023/01/03 20:31:20;;;;;;;1999.90;999.90;;;8.00;99.90;;;;;;6655807;89;20748;-77
2023/01/03 20:41:34;;;;;;;1999.90;999.90;;;8.10;99.90;;;;;;6652070;88;20531;-76
2023/01/03 20:51:35;;;;;;;1999.90;999.90;;;8.30;99.90;;;;;;6659688;89;20704;-79
2023/01/03 21:01:35;;;;;;;1999.90;999.90;;;8.40;99.90;;;;;;6657275;88;20237;-77
2023/01/03 21:11:36;;;;;;;1999.90;999.90;;;8.30;99.90;;;;;;6634274;89;20301;-79
2023/01/03 21:21:36;;;;;;;1999.90;999.90;;;8.30;99.90;;;;;;6637719;89;20676;-77
2023/01/03 21:31:40;;;;;;;1999.90;999.90;;;8.10;99.90;;;;;;6633296;88;20607;-77
2023/01/03 21:52:00;;;;;;;1999.90;999.90;;;7.90;99.90;;;;;;6642140;88;20730;-76
2023/01/03 22:12:20;;;;;;;1999.90;999.90;;;8.40;99.90;;;;;;6653302;89;20232;-77
2023/01/03 22:22:21;;;;;;;1999.90;999.90;;;8.50;99.90;;;;;;6659928;88;20209;-76
2023/01/03 22:32:25;;;;;;;1999.90;999.90;;;8.50;99.90;;;;;;6650377;88;20184;-77
2023/01/03 22:42:26;;;;;;;1999.90;999.90;;;8.50;99.90;;;;;;6653306;88;20191;-78
2023/01/03 22:52:26;;;;;;;1999.90;999.90;;;8.50;99.90;;;;;;6669954;88;20643;-77
2023/01/03 23:02:27;;;;;;;1999.90;999.90;;;8.50;99.90;;;;;;6666107;88;20243;-78
2023/01/03 23:22:46;;;;;;;1999.90;999.90;;;8.50;99.90;;;;;;6656694;88;20177;-77
2023/01/03 23:32:47;;;;;;;1999.90;999.90;;;8.60;99.90;;;;;;6659351;88;20344;-77
2023/01/03 23:42:47;;;;;;;1999.90;999.90;;;8.70;99.90;;;;;;6654591;88;20196;-77
2023/01/03 23:52:48;;;;;;;1999.90;999.90;;;8.80;99.90;;;;;;6652989;89;20208;-77
